< < Back
Terminal Aerodrome Forecast


Current Version              Previous Versions:   1  2  3  4  5  6  7  8  9  

Terminal Aerodrome Forecast

345
FTUS44 KOHX 271132
TAFCSV
TAF
KCSV 271132Z 2712/2812 00000KT 3SM BR SKC
     FM271300 VRB03KT P6SM SCT050 BKN250 PROB30 2722/2802 6SM -TSRA
      BKN050CB
     FM280200 VRB02KT P6SM SCT060 BKN250
     FM280500 00000KT 3SM BR SKC=



Latest METAR

149
SAUS70 KWBC 281400 RRD
MTRCSV
METAR KCSV 281353Z AUTO 00000KT 10SM CLR 26/20 A3026 RMK AO2 SLP224
T02560200


USA.gov is the U.S. government's official web portal to all federal, state and local government web resources and services.